createdAt,value
2023-06-07T00:00:35.469Z,43.88
2023-06-07T00:03:03.012Z,43.61
2023-06-07T00:05:32.372Z,43.62
2023-06-07T00:07:59.661Z,43.80
2023-06-07T00:10:26.984Z,43.58
2023-06-07T00:12:54.303Z,43.86
2023-06-07T00:15:21.645Z,43.33
2023-06-07T00:17:49.012Z,43.52
2023-06-07T00:20:16.388Z,43.72
2023-06-07T00:22:43.646Z,43.56
2023-06-07T00:25:11.040Z,43.36
2023-06-07T00:27:40.038Z,43.40
2023-06-07T00:30:07.767Z,43.75
2023-06-07T00:32:35.214Z,43.25
2023-06-07T00:35:02.492Z,43.43
2023-06-07T00:37:29.783Z,43.55
2023-06-07T00:39:57.028Z,43.45
2023-06-07T00:42:24.243Z,43.37
2023-06-07T00:44:51.616Z,43.40
2023-06-07T00:47:19.446Z,43.46
2023-06-07T00:49:46.891Z,43.07
2023-06-07T00:52:14.341Z,43.26
2023-06-07T00:54:41.932Z,43.26
2023-06-07T00:57:09.397Z,43.26
2023-06-07T00:59:38.143Z,43.16
2023-06-07T01:02:06.323Z,43.18
2023-06-07T01:04:35.865Z,43.43
2023-06-07T01:07:03.864Z,43.45
2023-06-07T01:09:31.953Z,43.35
2023-06-07T01:11:59.566Z,43.44
2023-06-07T01:14:27.281Z,43.30
2023-06-07T01:16:54.942Z,43.60
2023-06-07T01:19:28.355Z,43.47
2023-06-07T01:22:02.462Z,43.38
2023-06-07T01:24:31.152Z,43.02
2023-06-07T01:27:00.339Z,43.18
2023-06-07T01:29:28.504Z,43.03
2023-06-07T01:31:57.726Z,43.12
2023-06-07T01:34:25.809Z,43.02
2023-06-07T01:36:55.171Z,42.93
2023-06-07T01:39:22.983Z,43.26
2023-06-07T01:41:51.288Z,43.28
2023-06-07T01:44:19.893Z,42.87
2023-06-07T01:46:48.101Z,42.85
2023-06-07T01:49:18.006Z,43.13
2023-06-07T01:51:45.524Z,42.95
2023-06-07T01:54:13.602Z,43.03
2023-06-07T01:57:02.562Z,43.17
2023-06-07T01:59:49.204Z,43.18
2023-06-07T02:02:44.301Z,43.04
2023-06-07T02:05:18.957Z,42.73
2023-06-07T02:07:53.070Z,42.90
2023-06-07T02:10:22.663Z,43.03
2023-06-07T02:12:53.029Z,43.04
2023-06-07T02:15:21.037Z,43.15
2023-06-07T02:17:58.754Z,42.70
2023-06-07T02:20:27.377Z,43.13
2023-06-07T02:22:55.409Z,42.86
2023-06-07T02:25:23.154Z,42.58
2023-06-07T02:27:50.898Z,43.10
2023-06-07T02:30:18.346Z,42.59
2023-06-07T02:32:51.708Z,43.12
2023-06-07T02:35:19.639Z,42.85
2023-06-07T02:37:47.115Z,43.05
2023-06-07T02:40:15.055Z,42.93
2023-06-07T02:42:46.789Z,42.68
2023-06-07T02:45:14.442Z,43.09
2023-06-07T02:47:42.205Z,42.87
2023-06-07T02:50:10.070Z,42.72
2023-06-07T02:52:38.075Z,42.58
2023-06-07T02:55:06.069Z,42.46
2023-06-07T02:57:33.432Z,42.71
2023-06-07T03:00:01.065Z,42.67
2023-06-07T03:02:29.124Z,42.59
2023-06-07T03:04:57.552Z,42.63
2023-06-07T03:07:24.897Z,42.74
2023-06-07T03:09:52.899Z,42.62
2023-06-07T03:12:20.188Z,42.89
2023-06-07T03:14:47.405Z,42.76
2023-06-07T03:17:15.915Z,42.80
2023-06-07T03:19:43.333Z,42.80
2023-06-07T03:22:10.931Z,42.51
2023-06-07T03:24:38.261Z,42.88
2023-06-07T03:27:06.842Z,42.38
2023-06-07T03:29:34.338Z,42.46
2023-06-07T03:32:01.561Z,42.60
2023-06-07T03:34:33.596Z,42.72
2023-06-07T03:37:00.887Z,42.63
2023-06-07T03:39:28.330Z,42.53
2023-06-07T03:41:55.570Z,42.33
2023-06-07T03:44:22.875Z,42.38
2023-06-07T03:46:50.311Z,42.72
2023-06-07T03:49:17.548Z,42.52
2023-06-07T03:51:45.044Z,42.35
2023-06-07T03:54:12.363Z,42.68
2023-06-07T03:56:39.681Z,42.23
2023-06-07T03:59:07.722Z,42.56
2023-06-07T04:01:35.028Z,42.63
2023-06-07T04:04:02.791Z,42.28
2023-06-07T04:06:30.112Z,42.20
2023-06-07T04:09:01.145Z,42.53
2023-06-07T04:11:29.065Z,42.21
2023-06-07T04:13:56.591Z,42.48
2023-06-07T04:16:23.968Z,42.52
2023-06-07T04:18:51.248Z,42.45
2023-06-07T04:21:18.530Z,42.26
2023-06-07T04:23:46.172Z,42.37
2023-06-07T04:26:17.096Z,42.31
2023-06-07T04:28:44.407Z,42.29
2023-06-07T04:31:14.071Z,42.23
2023-06-07T04:33:41.521Z,42.35
2023-06-07T04:36:09.922Z,42.57
2023-06-07T04:38:49.975Z,42.19
2023-06-07T04:41:37.008Z,42.59
2023-06-07T04:44:05.911Z,42.34
2023-06-07T04:46:33.370Z,42.19
2023-06-07T04:49:01.366Z,42.83
2023-06-07T04:51:31.042Z,43.21
2023-06-07T04:54:02.156Z,43.43
2023-06-07T04:56:29.688Z,43.13
2023-06-07T04:58:57.573Z,43.34
2023-06-07T05:01:25.615Z,43.25
2023-06-07T05:04:03.466Z,43.23
2023-06-07T05:06:32.309Z,43.25
2023-06-07T05:08:59.684Z,42.87
2023-06-07T05:11:27.359Z,42.83
2023-06-07T05:13:54.588Z,42.75
2023-06-07T05:16:22.081Z,43.06
2023-06-07T05:18:52.480Z,42.67
2023-06-07T05:21:19.771Z,43.02
2023-06-07T05:23:47.258Z,42.93
2023-06-07T05:26:14.553Z,42.82
2023-06-07T05:28:41.958Z,42.66
2023-06-07T05:31:11.911Z,42.59
2023-06-07T05:33:40.169Z,42.69
2023-06-07T05:36:07.528Z,42.46
2023-06-07T05:38:34.740Z,42.57
2023-06-07T05:41:02.037Z,42.59
2023-06-07T05:43:29.412Z,42.51
2023-06-07T05:45:56.740Z,42.88
2023-06-07T05:48:24.001Z,42.56
2023-06-07T05:50:53.263Z,42.78
2023-06-07T05:53:21.129Z,42.84
2023-06-07T05:55:49.279Z,42.52
2023-06-07T05:58:17.227Z,42.91
2023-06-07T06:00:48.364Z,42.97
2023-06-07T06:03:19.073Z,42.76
2023-06-07T06:05:46.372Z,42.74
2023-06-07T06:08:14.487Z,42.64
2023-06-07T06:10:41.890Z,42.80
2023-06-07T06:13:09.114Z,43.00
2023-06-07T06:15:37.000Z,42.87
2023-06-07T06:18:04.690Z,42.88
2023-06-07T06:20:34.853Z,42.53
2023-06-07T06:23:04.979Z,42.57
2023-06-07T06:25:32.549Z,42.70
2023-06-07T06:27:59.809Z,42.28
2023-06-07T06:30:28.550Z,42.46
2023-06-07T06:32:56.076Z,42.42
2023-06-07T06:35:23.338Z,42.09
2023-06-07T06:37:50.688Z,42.16
2023-06-07T06:40:21.094Z,41.89
2023-06-07T06:42:48.457Z,42.10
2023-06-07T06:45:15.873Z,41.69
2023-06-07T06:47:43.415Z,41.41
2023-06-07T06:50:30.024Z,41.73
2023-06-07T06:52:59.060Z,41.37
2023-06-07T06:55:26.392Z,41.83
2023-06-07T06:57:53.691Z,41.87
2023-06-07T07:00:21.720Z,41.35
2023-06-07T07:02:49.032Z,41.52
2023-06-07T07:05:16.748Z,41.52
2023-06-07T07:07:44.177Z,41.45
2023-06-07T07:10:12.884Z,41.43
2023-06-07T07:12:40.209Z,41.46
2023-06-07T07:15:07.893Z,41.08
2023-06-07T07:17:35.237Z,41.12
2023-06-07T07:20:02.883Z,40.87
2023-06-07T07:22:30.372Z,41.21
2023-06-07T07:25:06.050Z,40.69
2023-06-07T07:27:34.660Z,40.90
2023-06-07T07:30:03.098Z,40.77
2023-06-07T07:32:31.925Z,40.96
2023-06-07T07:34:59.273Z,40.76
2023-06-07T07:37:29.313Z,40.43
2023-06-07T07:39:58.236Z,40.25
2023-06-07T07:42:25.506Z,40.37
2023-06-07T07:44:52.751Z,40.68
2023-06-07T07:47:20.011Z,40.23
2023-06-07T07:49:47.314Z,40.52
2023-06-07T07:52:14.637Z,40.68
2023-06-07T07:54:42.206Z,40.26
2023-06-07T07:57:09.507Z,39.86
2023-06-07T07:59:36.734Z,39.99
2023-06-07T08:02:04.980Z,40.07
2023-06-07T08:04:32.231Z,39.90
2023-06-07T08:06:59.459Z,39.63
2023-06-07T08:09:26.841Z,39.56
2023-06-07T08:11:54.074Z,39.75
2023-06-07T08:14:21.448Z,39.60
2023-06-07T08:16:49.357Z,39.61
2023-06-07T08:19:16.805Z,39.85
2023-06-07T08:21:45.098Z,39.68
2023-06-07T08:24:15.474Z,39.76
2023-06-07T08:26:46.614Z,39.81
2023-06-07T08:29:13.910Z,39.88
2023-06-07T08:31:44.545Z,39.57
2023-06-07T08:34:12.370Z,39.56
2023-06-07T08:36:43.408Z,39.84
2023-06-07T08:39:10.788Z,39.40
2023-06-07T08:41:38.156Z,39.29
2023-06-07T08:44:05.518Z,39.73
2023-06-07T08:46:33.635Z,39.33
2023-06-07T08:49:02.919Z,39.44
2023-06-07T08:51:30.759Z,39.04
2023-06-07T08:54:03.446Z,39.35
2023-06-07T08:56:32.946Z,39.01
2023-06-07T08:59:01.020Z,39.34
2023-06-07T09:01:32.250Z,39.25
2023-06-07T09:04:00.069Z,38.81
2023-06-07T09:06:28.138Z,38.79
2023-06-07T09:08:55.419Z,39.00
2023-06-07T09:11:22.721Z,38.85
2023-06-07T09:13:50.538Z,39.14
2023-06-07T09:16:18.008Z,39.16
2023-06-07T09:18:57.654Z,39.15
2023-06-07T09:21:27.640Z,39.02
2023-06-07T09:24:00.317Z,39.09
2023-06-07T09:26:39.864Z,38.60
2023-06-07T09:29:13.055Z,38.98
2023-06-07T09:31:41.020Z,38.63
2023-06-07T09:34:27.821Z,39.28
2023-06-07T09:37:00.258Z,39.42
2023-06-07T09:39:34.094Z,39.24
2023-06-07T09:42:01.492Z,39.37
2023-06-07T09:44:30.948Z,39.50
2023-06-07T09:47:03.144Z,39.66
2023-06-07T09:49:37.589Z,39.62
2023-06-07T09:52:14.968Z,39.35
2023-06-07T09:54:46.368Z,39.69
2023-06-07T09:57:30.703Z,39.26
2023-06-07T10:00:15.996Z,39.39
2023-06-07T10:02:44.679Z,39.17
2023-06-07T10:05:15.557Z,39.62
2023-06-07T10:07:47.078Z,39.36
2023-06-07T10:10:17.859Z,39.43
2023-06-07T10:12:47.474Z,39.24
2023-06-07T10:15:16.781Z,39.55
2023-06-07T10:18:13.709Z,39.59
2023-06-07T10:20:42.559Z,39.27
2023-06-07T10:23:13.775Z,39.65
2023-06-07T10:25:59.787Z,39.41
2023-06-07T10:28:44.582Z,39.54
2023-06-07T10:31:13.943Z,39.31
2023-06-07T10:33:42.557Z,39.11
2023-06-07T10:36:10.986Z,38.92
2023-06-07T10:38:39.571Z,39.12
2023-06-07T10:41:06.936Z,39.01
2023-06-07T10:43:34.971Z,38.97
2023-06-07T10:46:21.938Z,39.13
2023-06-07T10:48:49.376Z,38.74
2023-06-07T10:51:16.969Z,39.15
2023-06-07T10:53:54.337Z,38.84
2023-06-07T10:56:35.370Z,38.67
2023-06-07T10:59:15.701Z,38.95
2023-06-07T11:01:51.834Z,38.90
2023-06-07T11:04:41.116Z,38.74
2023-06-07T11:07:21.057Z,38.71
2023-06-07T11:09:49.909Z,38.57
2023-06-07T11:12:42.411Z,38.56
2023-06-07T11:15:39.406Z,38.78
2023-06-07T11:18:13.741Z,38.60
2023-06-07T11:20:44.780Z,38.74
2023-06-07T11:23:35.263Z,38.87
2023-06-07T11:26:11.789Z,38.79
2023-06-07T11:28:40.786Z,38.70
2023-06-07T11:31:12.313Z,38.29
2023-06-07T11:33:41.903Z,38.68
2023-06-07T11:36:12.554Z,38.54
2023-06-07T11:38:42.507Z,38.37
2023-06-07T11:41:09.806Z,38.57
2023-06-07T11:43:37.918Z,38.46
2023-06-07T11:46:05.230Z,38.48
2023-06-07T11:48:32.880Z,38.51
2023-06-07T11:51:01.354Z,38.67
2023-06-07T11:53:32.463Z,38.80
2023-06-07T11:56:01.031Z,38.40
2023-06-07T11:58:28.504Z,38.58
2023-06-07T12:00:57.616Z,38.86
2023-06-07T12:03:25.970Z,38.54
2023-06-07T12:05:54.266Z,38.76
2023-06-07T12:08:23.389Z,38.87
2023-06-07T12:10:57.137Z,38.95
2023-06-07T12:13:25.015Z,39.02
2023-06-07T12:15:57.087Z,39.08
2023-06-07T12:18:29.324Z,39.25
2023-06-07T12:21:07.291Z,39.40
2023-06-07T12:23:53.593Z,39.36
2023-06-07T12:26:22.891Z,39.28
2023-06-07T12:28:51.987Z,39.04
2023-06-07T12:31:24.321Z,39.09
2023-06-07T12:33:55.269Z,39.17
2023-06-07T12:36:28.742Z,39.43
2023-06-07T12:38:58.605Z,39.56
2023-06-07T12:41:29.139Z,39.42
2023-06-07T12:43:58.350Z,39.24
2023-06-07T12:46:26.088Z,39.70
2023-06-07T12:48:53.558Z,39.56
2023-06-07T12:51:25.291Z,39.54
2023-06-07T12:53:53.490Z,39.43
2023-06-07T12:56:21.348Z,39.33
2023-06-07T12:58:48.801Z,39.51
2023-06-07T13:01:16.994Z,39.30
2023-06-07T13:03:44.765Z,39.27
2023-06-07T13:06:12.298Z,39.53
2023-06-07T13:08:39.720Z,39.51
2023-06-07T13:11:07.126Z,39.74
2023-06-07T13:13:34.621Z,39.55
2023-06-07T13:16:01.926Z,39.58
2023-06-07T13:18:30.522Z,39.72
2023-06-07T13:20:58.352Z,39.69
2023-06-07T13:23:25.662Z,39.74
2023-06-07T13:25:52.984Z,39.65
2023-06-07T13:28:20.922Z,39.40
2023-06-07T13:30:48.329Z,39.37
2023-06-07T13:33:19.383Z,39.48
2023-06-07T13:35:46.722Z,39.74
2023-06-07T13:38:14.031Z,39.26
2023-06-07T13:40:41.271Z,39.34
2023-06-07T13:43:08.575Z,39.74
2023-06-07T13:45:37.322Z,39.71
2023-06-07T13:48:04.625Z,39.52
2023-06-07T13:50:32.073Z,39.68
2023-06-07T13:53:00.050Z,39.69
2023-06-07T13:55:27.384Z,39.13
2023-06-07T13:57:55.956Z,39.23
2023-06-07T14:00:23.496Z,39.33
2023-06-07T14:02:51.377Z,39.20
2023-06-07T14:05:18.830Z,39.27
2023-06-07T14:07:46.341Z,39.62
2023-06-07T14:10:13.703Z,39.27
2023-06-07T14:12:41.818Z,39.57
2023-06-07T14:15:09.834Z,39.62
2023-06-07T14:17:38.258Z,39.30
2023-06-07T14:20:06.421Z,39.55
2023-06-07T14:22:34.281Z,39.72
2023-06-07T14:25:01.553Z,39.61
2023-06-07T14:27:28.779Z,39.75
2023-06-07T14:29:56.134Z,39.65
2023-06-07T14:32:23.740Z,39.52
2023-06-07T14:34:51.401Z,39.54
2023-06-07T14:37:18.634Z,39.46
2023-06-07T14:39:45.913Z,39.52
2023-06-07T14:42:15.815Z,39.81
2023-06-07T14:44:44.845Z,39.56
2023-06-07T14:47:12.175Z,39.82
2023-06-07T14:49:39.420Z,39.52
2023-06-07T14:52:07.094Z,39.76
2023-06-07T14:54:34.322Z,39.86
2023-06-07T14:57:01.575Z,39.57
2023-06-07T14:59:29.049Z,39.77
2023-06-07T15:01:56.315Z,39.91
2023-06-07T15:04:23.567Z,39.97
2023-06-07T15:06:50.878Z,40.36
2023-06-07T15:09:18.172Z,40.43
2023-06-07T15:11:45.941Z,40.35
2023-06-07T15:14:13.224Z,40.41
2023-06-07T15:16:40.919Z,40.41
2023-06-07T15:19:08.136Z,40.56
2023-06-07T15:21:35.689Z,40.55
2023-06-07T15:24:03.007Z,40.43
2023-06-07T15:26:30.308Z,40.21
2023-06-07T15:29:00.470Z,40.43
2023-06-07T15:31:27.802Z,40.21
2023-06-07T15:33:56.381Z,40.50
2023-06-07T15:36:27.357Z,40.31
2023-06-07T15:38:54.693Z,40.13
2023-06-07T15:41:23.258Z,40.16
2023-06-07T15:43:50.716Z,40.24
2023-06-07T15:46:18.031Z,40.05
2023-06-07T15:48:49.012Z,40.21
2023-06-07T15:51:16.236Z,40.17
2023-06-07T15:53:43.847Z,39.87
2023-06-07T15:56:11.127Z,40.14
2023-06-07T15:58:38.443Z,40.05
2023-06-07T16:01:05.774Z,40.25
2023-06-07T16:03:46.362Z,40.23
2023-06-07T16:06:20.593Z,40.30
2023-06-07T16:08:47.865Z,39.83
2023-06-07T16:11:15.091Z,39.93
2023-06-07T16:13:42.792Z,40.30
2023-06-07T16:16:10.145Z,39.87
2023-06-07T16:18:38.275Z,40.29
2023-06-07T16:21:05.608Z,39.81
2023-06-07T16:23:33.036Z,39.88
2023-06-07T16:26:00.555Z,40.04
2023-06-07T16:28:27.799Z,40.29
2023-06-07T16:30:55.050Z,40.22
2023-06-07T16:33:22.274Z,40.16
2023-06-07T16:35:49.543Z,40.01
2023-06-07T16:38:18.007Z,40.33
2023-06-07T16:40:45.804Z,40.26
2023-06-07T16:43:13.042Z,40.22
2023-06-07T16:45:40.952Z,40.33
2023-06-07T16:48:08.233Z,40.16
2023-06-07T16:50:35.508Z,40.28
2023-06-07T16:53:02.744Z,40.35
2023-06-07T16:55:30.000Z,40.16
2023-06-07T16:57:57.243Z,40.12
2023-06-07T17:00:24.511Z,40.27
2023-06-07T17:02:51.778Z,39.98
2023-06-07T17:05:21.000Z,40.08
2023-06-07T17:07:48.615Z,40.35
2023-06-07T17:10:15.964Z,40.31
2023-06-07T17:12:43.205Z,40.16
2023-06-07T17:15:10.686Z,40.13
2023-06-07T17:17:37.941Z,39.85
2023-06-07T17:20:06.094Z,40.34
2023-06-07T17:22:33.519Z,40.16
2023-06-07T17:25:00.834Z,40.00
2023-06-07T17:27:28.074Z,39.92
2023-06-07T17:29:55.432Z,39.94
2023-06-07T17:32:22.650Z,40.13
2023-06-07T17:34:50.069Z,39.91
2023-06-07T17:37:18.816Z,39.78
2023-06-07T17:39:46.519Z,40.04
2023-06-07T17:42:16.991Z,40.16
2023-06-07T17:44:44.473Z,39.99
2023-06-07T17:47:13.877Z,40.29
2023-06-07T17:49:42.443Z,40.25
2023-06-07T17:52:21.827Z,40.09
2023-06-07T17:54:50.065Z,39.84
2023-06-07T17:57:17.357Z,39.66
2023-06-07T17:59:44.665Z,39.58
2023-06-07T18:02:11.990Z,39.43
2023-06-07T18:04:39.329Z,39.26
2023-06-07T18:07:07.111Z,39.54
2023-06-07T18:09:34.453Z,39.38
2023-06-07T18:12:01.710Z,39.34
2023-06-07T18:14:29.405Z,39.31
2023-06-07T18:16:56.612Z,39.15
2023-06-07T18:19:23.864Z,39.41
2023-06-07T18:21:53.113Z,39.46
2023-06-07T18:24:20.520Z,39.16
2023-06-07T18:26:47.936Z,39.42
2023-06-07T18:29:16.530Z,39.56
2023-06-07T18:31:43.978Z,39.57
2023-06-07T18:34:11.268Z,39.57
2023-06-07T18:36:38.569Z,39.38
2023-06-07T18:39:06.141Z,39.45
2023-06-07T18:41:33.411Z,39.74
2023-06-07T18:44:02.096Z,39.49
2023-06-07T18:46:29.819Z,40.14
2023-06-07T18:48:57.264Z,39.62
2023-06-07T18:51:24.970Z,39.82
2023-06-07T18:53:52.907Z,40.02
2023-06-07T18:56:21.146Z,39.82
2023-06-07T18:58:48.427Z,39.97
2023-06-07T19:01:16.334Z,39.78
2023-06-07T19:03:44.460Z,39.73
2023-06-07T19:06:11.896Z,40.24
2023-06-07T19:08:40.137Z,40.09
2023-06-07T19:11:07.691Z,40.14
2023-06-07T19:13:35.053Z,40.09
2023-06-07T19:16:02.365Z,40.40
2023-06-07T19:18:29.585Z,40.35
2023-06-07T19:20:56.816Z,40.48
2023-06-07T19:23:24.119Z,40.69
2023-06-07T19:25:51.386Z,40.98
2023-06-07T19:28:18.699Z,40.73
2023-06-07T19:30:46.256Z,40.88
2023-06-07T19:33:13.560Z,41.43
2023-06-07T19:35:41.429Z,41.84
2023-06-07T19:38:11.702Z,41.82
2023-06-07T19:40:39.028Z,42.22
2023-06-07T19:43:06.242Z,41.69
2023-06-07T19:45:33.531Z,41.89
2023-06-07T19:48:01.612Z,41.96
2023-06-07T19:50:28.947Z,41.96
2023-06-07T19:52:56.310Z,41.44
2023-06-07T19:55:23.640Z,42.10
2023-06-07T19:57:50.904Z,42.46
2023-06-07T20:00:18.522Z,42.71
2023-06-07T20:02:48.271Z,42.91
2023-06-07T20:05:16.035Z,43.11
2023-06-07T20:07:43.296Z,42.66
2023-06-07T20:10:10.869Z,42.63
2023-06-07T20:12:38.131Z,42.85
2023-06-07T20:15:05.946Z,42.62
2023-06-07T20:17:34.682Z,42.53
2023-06-07T20:20:02.192Z,42.99
2023-06-07T20:22:32.015Z,42.74
2023-06-07T20:24:59.531Z,43.13
2023-06-07T20:27:27.218Z,42.61
2023-06-07T20:29:55.879Z,43.79
2023-06-07T20:32:23.478Z,43.17
2023-06-07T20:34:50.855Z,43.34
2023-06-07T20:37:18.357Z,43.25
2023-06-07T20:39:45.756Z,43.38
2023-06-07T20:42:13.324Z,43.64
2023-06-07T20:44:52.665Z,43.28
2023-06-07T20:47:21.918Z,44.07
2023-06-07T20:49:49.284Z,44.15
2023-06-07T20:52:16.720Z,44.03
2023-06-07T20:54:44.021Z,43.98
2023-06-07T20:57:11.580Z,44.00
2023-06-07T20:59:45.938Z,43.75
2023-06-07T21:02:13.254Z,43.82
2023-06-07T21:04:40.656Z,44.06
2023-06-07T21:07:08.080Z,43.72
2023-06-07T21:09:35.751Z,43.93
2023-06-07T21:12:04.169Z,43.82
2023-06-07T21:14:31.516Z,44.10
2023-06-07T21:16:58.887Z,43.68
2023-06-07T21:19:26.296Z,44.04
2023-06-07T21:21:53.653Z,43.74
2023-06-07T21:24:21.124Z,43.66
2023-06-07T21:26:48.544Z,43.56
2023-06-07T21:29:15.892Z,43.92
2023-06-07T21:31:43.445Z,43.78
2023-06-07T21:34:13.573Z,43.98
2023-06-07T21:36:41.528Z,43.38
2023-06-07T21:39:09.122Z,43.59
2023-06-07T21:41:38.461Z,43.80
2023-06-07T21:44:05.852Z,43.79
2023-06-07T21:46:33.133Z,44.05
2023-06-07T21:49:00.537Z,43.97
2023-06-07T21:51:27.981Z,43.95
2023-06-07T21:53:55.431Z,44.07
2023-06-07T21:56:22.809Z,44.11
2023-06-07T21:58:50.076Z,43.94
2023-06-07T22:01:17.536Z,43.69
2023-06-07T22:03:44.983Z,43.78
2023-06-07T22:06:12.682Z,43.92
2023-06-07T22:08:40.314Z,43.68
2023-06-07T22:11:07.566Z,44.00
2023-06-07T22:13:37.954Z,43.79
2023-06-07T22:16:05.665Z,43.96
2023-06-07T22:18:36.309Z,43.61
2023-06-07T22:21:04.860Z,43.94
2023-06-07T22:23:32.764Z,43.87
2023-06-07T22:26:03.667Z,43.82
2023-06-07T22:28:33.696Z,43.68
2023-06-07T22:31:03.729Z,43.77
2023-06-07T22:33:33.176Z,43.96
2023-06-07T22:36:00.667Z,43.92
2023-06-07T22:38:27.913Z,43.66
2023-06-07T22:40:55.623Z,43.56
2023-06-07T22:43:23.027Z,43.43
2023-06-07T22:45:50.301Z,43.28
2023-06-07T22:48:19.880Z,43.51
2023-06-07T22:50:48.511Z,43.45
2023-06-07T22:53:16.308Z,43.04
2023-06-07T22:55:43.626Z,43.65
2023-06-07T22:58:11.214Z,43.54
2023-06-07T23:00:40.375Z,43.59
2023-06-07T23:03:08.625Z,43.40
2023-06-07T23:05:36.849Z,43.30
2023-06-07T23:08:04.206Z,43.42
2023-06-07T23:10:36.823Z,43.23
2023-06-07T23:13:10.531Z,43.38
2023-06-07T23:15:42.174Z,43.42
2023-06-07T23:18:11.855Z,43.14
2023-06-07T23:20:42.036Z,43.29
2023-06-07T23:23:11.302Z,43.16
2023-06-07T23:25:39.073Z,43.14
2023-06-07T23:28:06.874Z,43.12
2023-06-07T23:30:34.579Z,43.21
2023-06-07T23:33:02.052Z,43.08
2023-06-07T23:35:29.589Z,42.85
2023-06-07T23:37:57.046Z,43.00
2023-06-07T23:40:24.286Z,42.65
2023-06-07T23:42:52.858Z,42.88
2023-06-07T23:45:23.819Z,42.62
2023-06-07T23:47:51.125Z,42.75
2023-06-07T23:50:18.417Z,42.60
2023-06-07T23:52:45.622Z,42.98
2023-06-07T23:55:12.901Z,42.72
2023-06-07T23:57:40.154Z,42.67
